Terminal Aerodrome Forecast
Issued by NWS Rapid City, SD

Home | Current Version | Previous Version | Graphics & Text | Print | Product List | Glossary On
Versions: 1 2 3 4 5 6 7 8 9 10 11 12 13 14 15 16 17 18 19 20 21 22 23 24
206
FTUS43 KUNR 241724
TAFRAP
TAF
KRAP 241724Z 2418/2518 35016G24KT P6SM SCT020
     FM250000 02011KT P6SM VCSH SCT030 BKN100
     FM250600 06009KT P6SM -RA OVC015
     FM250900 03009KT 2SM -SN OVC005=

USA.gov is the U.S. government's official web portal to all federal, state and local government web resources and services.